Airfield :
LOGIN :

Register | Disclaimer

   EN    FR    IT 

 










Legend :    VFR   Marginal VFR   IFR   Intensive IFR   Very Intensive IFR
Visi :
Ceiling :
>= 8 km
>= 3000ft
5 to 8 km
1000 to 3000 ft
1500m to 5 km
500 to 1000 ft
800 to 1500m
200 to 500 ft
< 800m
< 200 ft
Symbols :   Thunderstorms  Fog  Heavy snow  Heavy precipitations  Wind > 20 kt
SIGMETs :     Misc.  Thunderstorms  Icing  Turbulence  Mountain Waves  Volcanic Ashes







- Airport Elevation : 195 ft
- Download approach charts


LFMY - Salon de Provence

CURRENT METAR :
  • 202230Z AUTO 17002KT CAVOK 19/16 Q1012

EXPIRED METARs :
  • 202200Z AUTO 03004KT CAVOK 20/16 Q1012
  • 202130Z AUTO 00000KT CAVOK 20/16 Q1012
  • 202100Z AUTO 04003KT CAVOK 20/17 Q1012
  • 202030Z AUTO 00000KT CAVOK 22/17 Q1012
  • 202000Z AUTO 00000KT CAVOK 23/17 Q1012
  • 201930Z AUTO 00000KT CAVOK 25/15 Q1012

TAF AMD TAF LFMY
Valid from the 20 at 15:00 until the 21 at 15:00 UTC


201425Z 2015/2115 30008KT CAVOK
PROB30
TEMPO 2015/2017 TSRA FEW050CB
BECMG 2018/2020 VRB02KT
BECMG 2107/2109 21012KT
No reported NOTAMs for that airfield.



MET'MAP, your aeronautical weather chart ! - Copyright ORBIFLY December 2007 - Disclaimer

ORBIFLY MET'MAP TEAM :

Programming & Development : Alexandra Zaïnal
Concept & Development : Baudouin d'Aumeries
Co-Development & Prog : Marc-Olivier Méhu
Technical & hardware support : Manuel Goepfert

Contact : metmap@orbifly.com




SOURCES & CREDITS :

   NOAA